Time;durP1;ratioP1;P1;durP2;ratioP2;P2;SDS_P1;SDS_P2;PMS_P1;PMS_P2;Temp;Humidity;BMP_temperature;BMP_pressure;BME280_temperature;BME280_humidity;BME280_pressure;Samples;Min_cycle;Max_cycle;Signal;HPM_P1;HPM_P2
2023/04/16 00:02:20;;;;;;;33.85;14.30;;;;;;;;;;5061214;28;20041;-82
2023/04/16 00:04:46;;;;;;;32.63;14.20;;;;;;;;;;5059041;28;20127;-82
2023/04/16 00:07:12;;;;;;;33.45;13.98;;;;;;;;;;5054763;28;20553;-82
2023/04/16 00:09:38;;;;;;;29.58;13.27;;;;;;;;;;5042202;28;20076;-82
2023/04/16 00:12:05;;;;;;;36.40;14.70;;;;;;;;;;5053843;28;20041;-82
2023/04/16 00:14:31;;;;;;;27.17;13.63;;;;;;;;;;5038894;28;20503;-82
2023/04/16 00:17:00;;;;;;;34.50;14.98;;;;;;;;;;5053663;28;20041;-82
2023/04/16 00:19:26;;;;;;;30.70;15.35;;;;;;;;;;5035642;28;20049;-82
2023/04/16 00:21:52;;;;;;;33.08;16.02;;;;;;;;;;5052808;28;20055;-82
2023/04/16 00:24:18;;;;;;;32.42;14.75;;;;;;;;;;5048828;28;20481;-82
2023/04/16 00:26:45;;;;;;;32.25;13.55;;;;;;;;;;5050139;28;20102;-82
2023/04/16 00:29:11;;;;;;;28.38;12.73;;;;;;;;;;5049469;28;20400;-83
2023/04/16 00:31:37;;;;;;;30.25;12.30;;;;;;;;;;5034287;28;20049;-82
2023/04/16 00:34:03;;;;;;;30.17;12.02;;;;;;;;;;5048440;28;20052;-82
2023/04/16 00:36:30;;;;;;;25.80;10.95;;;;;;;;;;5047732;28;20090;-81
2023/04/16 00:38:56;;;;;;;26.33;11.55;;;;;;;;;;5047608;28;20485;-82
2023/04/16 00:41:22;;;;;;;26.20;12.45;;;;;;;;;;5050869;28;20036;-82
2023/04/16 00:43:49;;;;;;;23.67;11.13;;;;;;;;;;5028826;28;20045;-82
2023/04/16 00:46:15;;;;;;;27.00;10.65;;;;;;;;;;5047199;28;20382;-82
2023/04/16 00:48:43;;;;;;;27.10;11.90;;;;;;;;;;5049140;28;20543;-82
2023/04/16 00:51:09;;;;;;;22.65;10.45;;;;;;;;;;5036065;28;20318;-82
2023/04/16 00:53:35;;;;;;;19.83;10.32;;;;;;;;;;5051682;28;20047;-82
2023/04/16 00:56:02;;;;;;;21.38;9.55;;;;;;;;;;5055197;28;20544;-82
2023/04/16 00:58:29;;;;;;;22.77;11.25;;;;;;;;;;5055372;28;20063;-82
2023/04/16 01:00:55;;;;;;;23.45;10.38;;;;;;;;;;5040571;28;20048;-82
2023/04/16 01:03:22;;;;;;;22.83;10.30;;;;;;;;;;5050873;28;20048;-82
2023/04/16 01:05:50;;;;;;;21.23;10.38;;;;;;;;;;5042170;28;20044;-82
2023/04/16 01:08:20;;;;;;;23.60;11.18;;;;;;;;;;5044859;28;20086;-82
2023/04/16 01:10:46;;;;;;;23.73;11.00;;;;;;;;;;5032960;28;20041;-82
2023/04/16 01:13:12;;;;;;;22.92;11.88;;;;;;;;;;5060014;28;20036;-83
2023/04/16 01:15:38;;;;;;;21.02;11.55;;;;;;;;;;5052530;28;20477;-82
2023/04/16 01:18:17;;;;;;;21.23;11.27;;;;;;;;;;5044628;28;20108;-82
2023/04/16 01:20:43;;;;;;;23.75;11.32;;;;;;;;;;5055844;28;20401;-83
2023/04/16 01:23:10;;;;;;;23.55;11.38;;;;;;;;;;5058234;28;20424;-83
2023/04/16 01:25:36;;;;;;;26.63;12.00;;;;;;;;;;5035305;28;20048;-83
2023/04/16 01:28:02;;;;;;;25.80;12.45;;;;;;;;;;5049655;28;20056;-83
2023/04/16 01:30:28;;;;;;;25.38;12.10;;;;;;;;;;5033642;28;20594;-83
2023/04/16 01:32:55;;;;;;;27.10;12.15;;;;;;;;;;5052327;28;20052;-83
2023/04/16 01:35:21;;;;;;;25.58;12.35;;;;;;;;;;5052841;28;20045;-83
2023/04/16 01:37:47;;;;;;;30.52;11.93;;;;;;;;;;5050753;28;20389;-83
2023/04/16 01:40:13;;;;;;;33.92;11.93;;;;;;;;;;5056913;28;20033;-83
2023/04/16 01:42:39;;;;;;;24.67;12.18;;;;;;;;;;5051581;28;20106;-82
2023/04/16 01:45:05;;;;;;;36.75;15.05;;;;;;;;;;5039629;28;20045;-83
2023/04/16 01:47:31;;;;;;;31.20;13.80;;;;;;;;;;5052924;28;20300;-83
2023/04/16 01:49:58;;;;;;;28.70;13.43;;;;;;;;;;5061395;28;20040;-83
2023/04/16 01:52:24;;;;;;;27.75;13.02;;;;;;;;;;5070711;28;20106;-82
2023/04/16 01:54:50;;;;;;;26.80;13.32;;;;;;;;;;5061533;28;20480;-83
2023/04/16 01:57:16;;;;;;;29.60;13.95;;;;;;;;;;5065805;28;20504;-83
2023/04/16 01:59:42;;;;;;;31.05;13.75;;;;;;;;;;5046336;28;20082;-82
2023/04/16 02:02:13;;;;;;;28.60;14.02;;;;;;;;;;5058015;28;20048;-82
2023/04/16 02:04:44;;;;;;;30.33;13.60;;;;;;;;;;5042959;28;20044;-83
2023/04/16 02:07:10;;;;;;;27.50;14.00;;;;;;;;;;5053106;28;20397;-82
2023/04/16 02:09:36;;;;;;;33.20;14.38;;;;;;;;;;5064805;28;20044;-83
2023/04/16 02:12:02;;;;;;;29.92;14.18;;;;;;;;;;5071161;28;20060;-82
2023/04/16 02:14:29;;;;;;;31.35;13.43;;;;;;;;;;5063556;28;20124;-82
2023/04/16 02:16:55;;;;;;;29.67;13.15;;;;;;;;;;5059287;28;20067;-82
2023/04/16 02:19:21;;;;;;;29.17;13.70;;;;;;;;;;5059310;28;20122;-82
2023/04/16 02:21:48;;;;;;;29.23;13.77;;;;;;;;;;5062821;28;20040;-82
2023/04/16 02:24:14;;;;;;;26.38;13.63;;;;;;;;;;5057706;28;20041;-82
2023/04/16 02:26:40;;;;;;;29.55;14.05;;;;;;;;;;5041416;28;20032;-82
2023/04/16 02:29:06;;;;;;;30.23;14.02;;;;;;;;;;5033453;28;20040;-82
2023/04/16 02:31:32;;;;;;;33.42;14.15;;;;;;;;;;5031718;28;20445;-82
2023/04/16 02:33:58;;;;;;;31.80;15.40;;;;;;;;;;5034500;28;20179;-82
2023/04/16 02:36:24;;;;;;;27.98;15.68;;;;;;;;;;5051984;28;20045;-82
2023/04/16 02:38:50;;;;;;;32.72;15.80;;;;;;;;;;5050799;28;20052;-82
2023/04/16 02:41:16;;;;;;;32.08;15.52;;;;;;;;;;5055797;28;20048;-82
2023/04/16 02:43:42;;;;;;;38.20;16.33;;;;;;;;;;5053226;28;20040;-82
2023/04/16 02:46:09;;;;;;;37.35;17.48;;;;;;;;;;5036971;28;20044;-82
2023/04/16 02:48:35;;;;;;;37.30;17.55;;;;;;;;;;5049909;28;20055;-82
2023/04/16 02:51:01;;;;;;;38.22;18.90;;;;;;;;;;5049099;28;20119;-82
2023/04/16 02:53:27;;;;;;;39.90;20.33;;;;;;;;;;5027303;28;20538;-82
2023/04/16 02:55:54;;;;;;;39.80;20.67;;;;;;;;;;5047955;28;20110;-82
2023/04/16 02:58:20;;;;;;;40.58;21.08;;;;;;;;;;5054084;28;20041;-82
2023/04/16 03:00:47;;;;;;;39.08;19.83;;;;;;;;;;5050268;28;20033;-82
2023/04/16 03:03:13;;;;;;;41.00;19.65;;;;;;;;;;5036830;28;20389;-82
2023/04/16 03:05:39;;;;;;;36.17;20.73;;;;;;;;;;5052170;28;20036;-82
2023/04/16 03:08:05;;;;;;;38.65;21.33;;;;;;;;;;5055781;28;20485;-83
2023/04/16 03:10:33;;;;;;;34.88;20.45;;;;;;;;;;5058598;28;20041;-82
2023/04/16 03:12:59;;;;;;;36.75;20.63;;;;;;;;;;5035947;28;20052;-83
2023/04/16 03:15:26;;;;;;;37.88;18.83;;;;;;;;;;5056032;28;20102;-83
2023/04/16 03:17:52;;;;;;;34.38;17.52;;;;;;;;;;5032635;28;20041;-82
2023/04/16 03:20:18;;;;;;;38.55;16.65;;;;;;;;;;5050833;28;20060;-82
2023/04/16 03:22:45;;;;;;;37.28;15.98;;;;;;;;;;5058331;28;20048;-82
2023/04/16 03:25:11;;;;;;;35.50;16.10;;;;;;;;;;5049628;28;20128;-82
2023/04/16 03:27:40;;;;;;;37.33;17.45;;;;;;;;;;5058215;28;20049;-82
2023/04/16 03:30:07;;;;;;;35.90;17.67;;;;;;;;;;5050469;28;20064;-82
2023/04/16 03:32:33;;;;;;;34.70;18.20;;;;;;;;;;5055962;28;20045;-82
2023/04/16 03:34:59;;;;;;;43.60;19.55;;;;;;;;;;5053603;28;20424;-82
2023/04/16 03:37:25;;;;;;;45.03;19.40;;;;;;;;;;5036354;28;20084;-82
2023/04/16 03:39:51;;;;;;;40.85;21.75;;;;;;;;;;5060511;28;20052;-82
2023/04/16 03:42:17;;;;;;;44.45;22.67;;;;;;;;;;5032882;28;20553;-82
2023/04/16 03:44:44;;;;;;;40.63;22.50;;;;;;;;;;5051772;28;20123;-82
2023/04/16 03:47:10;;;;;;;41.70;24.58;;;;;;;;;;5051732;28;20056;-82
2023/04/16 03:49:36;;;;;;;39.72;22.15;;;;;;;;;;5050598;28;20037;-82
2023/04/16 03:52:02;;;;;;;39.63;19.75;;;;;;;;;;5054084;28;20056;-82
2023/04/16 03:54:28;;;;;;;41.22;19.85;;;;;;;;;;5063260;28;20059;-82
2023/04/16 03:56:54;;;;;;;35.58;19.42;;;;;;;;;;5032018;28;20404;-82
2023/04/16 03:59:20;;;;;;;48.42;20.08;;;;;;;;;;5051624;28;20049;-82
2023/04/16 04:01:46;;;;;;;41.83;21.25;;;;;;;;;;5032907;28;20141;-82
2023/04/16 04:04:12;;;;;;;36.45;19.40;;;;;;;;;;5032991;28;20558;-82
2023/04/16 04:06:38;;;;;;;44.17;20.52;;;;;;;;;;5052814;28;20049;-82
2023/04/16 04:09:04;;;;;;;44.28;20.70;;;;;;;;;;5054247;28;20037;-82
2023/04/16 04:11:30;;;;;;;49.30;21.30;;;;;;;;;;5055818;28;20049;-82
2023/04/16 04:13:56;;;;;;;49.60;21.67;;;;;;;;;;5058215;28;20048;-82
2023/04/16 04:16:22;;;;;;;43.15;19.45;;;;;;;;;;5039011;28;20056;-82
2023/04/16 04:18:48;;;;;;;46.72;19.60;;;;;;;;;;5062749;28;20033;-82
2023/04/16 04:21:14;;;;;;;50.88;21.10;;;;;;;;;;5036379;28;20088;-82
2023/04/16 04:23:41;;;;;;;52.20;20.30;;;;;;;;;;5039270;28;20202;-82
2023/04/16 04:26:07;;;;;;;46.88;20.63;;;;;;;;;;5050539;28;20368;-82
2023/04/16 04:28:33;;;;;;;41.90;19.65;;;;;;;;;;5058236;28;20119;-82
2023/04/16 04:31:00;;;;;;;48.70;19.55;;;;;;;;;;5048720;28;20396;-83
2023/04/16 04:33:26;;;;;;;43.40;18.45;;;;;;;;;;5052973;28;20048;-82
2023/04/16 04:35:52;;;;;;;42.55;18.48;;;;;;;;;;5055784;28;20055;-82
2023/04/16 04:38:20;;;;;;;42.97;18.55;;;;;;;;;;5040027;28;20057;-82
2023/04/16 04:40:46;;;;;;;41.25;18.25;;;;;;;;;;5050847;28;20045;-82
2023/04/16 04:43:12;;;;;;;42.00;19.35;;;;;;;;;;5030289;28;20390;-82
2023/04/16 04:45:38;;;;;;;43.92;21.20;;;;;;;;;;5056205;28;20045;-84
2023/04/16 04:48:04;;;;;;;51.45;20.35;;;;;;;;;;5038623;28;20045;-84
2023/04/16 04:50:30;;;;;;;46.67;21.15;;;;;;;;;;5052895;28;20549;-83
2023/04/16 04:52:56;;;;;;;46.08;20.38;;;;;;;;;;5048995;28;20048;-83
2023/04/16 04:55:23;;;;;;;40.53;20.33;;;;;;;;;;5052698;28;20043;-81
2023/04/16 04:57:49;;;;;;;39.80;17.33;;;;;;;;;;5051807;28;20132;-81
2023/04/16 05:00:15;;;;;;;35.63;17.35;;;;;;;;;;5031744;28;20261;-81
2023/04/16 05:02:41;;;;;;;36.10;16.92;;;;;;;;;;5053032;28;20497;-81
2023/04/16 05:05:08;;;;;;;33.60;15.98;;;;;;;;;;5051954;28;20132;-82
2023/04/16 05:07:34;;;;;;;36.45;16.67;;;;;;;;;;5054721;28;20044;-81
2023/04/16 05:10:00;;;;;;;34.65;15.32;;;;;;;;;;5038409;28;20041;-81
2023/04/16 05:12:26;;;;;;;29.40;13.48;;;;;;;;;;5038754;28;20607;-81
2023/04/16 05:14:52;;;;;;;27.90;13.88;;;;;;;;;;5051596;28;20039;-81
2023/04/16 05:17:18;;;;;;;27.65;13.35;;;;;;;;;;5035786;28;20494;-82
2023/04/16 05:19:44;;;;;;;29.48;12.75;;;;;;;;;;5053041;28;20037;-82
2023/04/16 05:22:11;;;;;;;27.95;13.82;;;;;;;;;;5055485;28;20048;-82
2023/04/16 05:24:37;;;;;;;36.53;15.07;;;;;;;;;;5054414;28;20053;-82
2023/04/16 05:27:03;;;;;;;30.77;15.48;;;;;;;;;;5050754;28;20041;-81
2023/04/16 05:29:32;;;;;;;24.77;13.10;;;;;;;;;;5060281;28;20075;-82
2023/04/16 05:31:58;;;;;;;26.05;12.98;;;;;;;;;;5031504;28;20060;-82
2023/04/16 05:34:24;;;;;;;23.90;12.63;;;;;;;;;;5058498;28;20397;-82
2023/04/16 05:36:51;;;;;;;31.48;12.80;;;;;;;;;;5035887;28;20056;-82
2023/04/16 05:39:17;;;;;;;26.48;13.07;;;;;;;;;;5035648;28;20040;-82
2023/04/16 05:41:43;;;;;;;27.23;13.48;;;;;;;;;;5053013;28;20068;-82
2023/04/16 05:44:09;;;;;;;27.77;13.48;;;;;;;;;;5052241;28;20115;-82
2023/04/16 05:46:35;;;;;;;27.60;12.88;;;;;;;;;;5039732;28;20135;-82
2023/04/16 05:49:01;;;;;;;29.70;14.60;;;;;;;;;;5067273;28;20446;-82
2023/04/16 05:51:27;;;;;;;37.97;14.40;;;;;;;;;;5056783;28;20067;-82
2023/04/16 05:53:53;;;;;;;27.90;14.30;;;;;;;;;;5056984;28;20098;-82
2023/04/16 05:56:20;;;;;;;29.85;14.50;;;;;;;;;;5052443;28;20107;-82
2023/04/16 05:58:46;;;;;;;30.17;14.50;;;;;;;;;;5030233;28;20052;-82
2023/04/16 06:01:12;;;;;;;32.42;14.63;;;;;;;;;;5030855;28;20369;-82
2023/04/16 06:03:38;;;;;;;31.80;15.63;;;;;;;;;;5033064;28;20071;-82
2023/04/16 06:06:05;;;;;;;30.80;15.60;;;;;;;;;;5051270;28;20051;-82
2023/04/16 06:08:31;;;;;;;31.05;15.13;;;;;;;;;;5048715;28;20493;-83
2023/04/16 06:10:57;;;;;;;35.60;15.93;;;;;;;;;;5051217;28;20044;-82
2023/04/16 06:13:23;;;;;;;28.10;14.75;;;;;;;;;;5050730;28;20091;-82
2023/04/16 06:15:49;;;;;;;28.65;13.73;;;;;;;;;;5052128;28;20036;-82
2023/04/16 06:18:18;;;;;;;27.10;12.82;;;;;;;;;;5040042;28;20118;-82
2023/04/16 06:20:44;;;;;;;24.83;11.88;;;;;;;;;;5060289;28;20082;-82
2023/04/16 06:23:10;;;;;;;28.45;11.80;;;;;;;;;;5040307;28;20053;-82
2023/04/16 06:25:36;;;;;;;32.42;12.75;;;;;;;;;;5042689;28;20040;-82
2023/04/16 06:28:02;;;;;;;25.67;12.18;;;;;;;;;;5054029;28;20483;-82
2023/04/16 06:30:28;;;;;;;24.30;12.95;;;;;;;;;;5057007;28;20048;-83
2023/04/16 06:32:54;;;;;;;31.10;13.02;;;;;;;;;;5053250;28;20459;-83
2023/04/16 06:35:20;;;;;;;28.10;12.88;;;;;;;;;;5058054;28;20052;-82
2023/04/16 06:37:46;;;;;;;30.48;12.93;;;;;;;;;;5052159;28;20045;-82
2023/04/16 06:40:13;;;;;;;21.73;10.30;;;;;;;;;;5056194;28;20037;-82
2023/04/16 06:42:39;;;;;;;20.20;10.98;;;;;;;;;;5045063;28;20455;-82
2023/04/16 06:45:05;;;;;;;23.92;10.88;;;;;;;;;;5040683;28;20099;-82
2023/04/16 06:47:31;;;;;;;24.10;10.95;;;;;;;;;;5056431;28;20044;-82
2023/04/16 06:49:57;;;;;;;22.05;10.65;;;;;;;;;;5041958;28;20036;-82
2023/04/16 06:52:23;;;;;;;22.80;11.05;;;;;;;;;;5052669;28;20044;-82
2023/04/16 06:54:49;;;;;;;22.88;10.95;;;;;;;;;;5056091;28;20438;-82
2023/04/16 06:57:15;;;;;;;25.63;12.43;;;;;;;;;;5058353;28;20053;-82
2023/04/16 06:59:41;;;;;;;28.23;12.10;;;;;;;;;;5051641;28;20408;-83
2023/04/16 07:02:09;;;;;;;22.77;12.23;;;;;;;;;;5034578;28;20041;-82
2023/04/16 07:04:35;;;;;;;26.08;12.75;;;;;;;;;;5054320;28;20032;-82
2023/04/16 07:07:01;;;;;;;22.85;11.88;;;;;;;;;;5067195;28;20110;-82
2023/04/16 07:09:27;;;;;;;21.95;11.48;;;;;;;;;;5054238;28;20114;-82
2023/04/16 07:11:53;;;;;;;31.33;13.25;;;;;;;;;;5053846;28;20469;-83
2023/04/16 07:14:20;;;;;;;24.52;13.60;;;;;;;;;;5051100;28;20048;-83
2023/04/16 07:16:46;;;;;;;24.40;12.63;;;;;;;;;;5041583;28;20128;-83
2023/04/16 07:19:12;;;;;;;27.20;13.60;;;;;;;;;;5039474;28;20183;-82
2023/04/16 07:21:38;;;;;;;33.00;14.80;;;;;;;;;;5061080;28;20453;-82
2023/04/16 07:24:04;;;;;;;35.38;16.02;;;;;;;;;;5057619;28;20389;-82
2023/04/16 07:26:30;;;;;;;31.05;15.57;;;;;;;;;;5059401;28;20036;-83
2023/04/16 07:28:56;;;;;;;35.97;16.25;;;;;;;;;;5054103;28;20081;-83
2023/04/16 07:31:22;;;;;;;35.95;17.20;;;;;;;;;;5043631;28;20048;-83
2023/04/16 07:33:49;;;;;;;46.03;17.08;;;;;;;;;;5053778;28;20393;-83
2023/04/16 07:36:15;;;;;;;43.40;18.70;;;;;;;;;;5054378;28;20472;-83
2023/04/16 07:38:41;;;;;;;35.63;16.77;;;;;;;;;;5049249;28;20453;-83
2023/04/16 07:41:07;;;;;;;37.28;16.63;;;;;;;;;;5035524;28;20055;-83
2023/04/16 07:43:33;;;;;;;34.58;17.80;;;;;;;;;;5059131;28;20044;-83
2023/04/16 07:45:59;;;;;;;36.17;19.48;;;;;;;;;;5056549;28;20142;-82
2023/04/16 07:48:25;;;;;;;33.15;17.42;;;;;;;;;;5050362;28;20514;-82
2023/04/16 07:50:51;;;;;;;35.40;18.58;;;;;;;;;;5056516;28;20044;-83
2023/04/16 07:53:17;;;;;;;37.95;18.27;;;;;;;;;;5065232;28;20056;-83
2023/04/16 07:55:43;;;;;;;38.67;19.00;;;;;;;;;;5050138;28;20060;-82
2023/04/16 07:58:09;;;;;;;33.53;17.85;;;;;;;;;;5031796;28;20060;-83
2023/04/16 08:00:35;;;;;;;31.25;15.93;;;;;;;;;;5053288;28;20508;-83
2023/04/16 08:03:01;;;;;;;35.20;18.13;;;;;;;;;;5047114;28;20048;-82
2023/04/16 08:05:27;;;;;;;29.08;16.35;;;;;;;;;;5031406;28;20481;-83
2023/04/16 08:07:53;;;;;;;29.15;17.10;;;;;;;;;;5047554;28;20048;-83
2023/04/16 08:10:19;;;;;;;32.35;17.85;;;;;;;;;;5053589;28;20059;-83
2023/04/16 08:12:45;;;;;;;36.38;18.17;;;;;;;;;;5042401;28;20052;-82
2023/04/16 08:15:11;;;;;;;33.65;16.50;;;;;;;;;;5046861;28;20056;-82
2023/04/16 08:17:38;;;;;;;29.35;15.55;;;;;;;;;;5044997;28;20053;-82
2023/04/16 08:20:04;;;;;;;31.38;16.10;;;;;;;;;;5052812;28;20037;-82
2023/04/16 08:22:30;;;;;;;28.40;16.15;;;;;;;;;;5059540;28;20064;-83
2023/04/16 08:24:56;;;;;;;32.05;15.30;;;;;;;;;;5057794;28;20055;-82
2023/04/16 08:27:22;;;;;;;29.90;13.75;;;;;;;;;;5051159;28;20108;-81
2023/04/16 08:29:48;;;;;;;30.35;16.00;;;;;;;;;;5056687;28;20032;-79
2023/04/16 08:32:14;;;;;;;30.08;15.27;;;;;;;;;;5038920;28;20037;-79
2023/04/16 08:34:41;;;;;;;38.35;14.70;;;;;;;;;;5034238;28;20052;-80
2023/04/16 08:37:10;;;;;;;27.05;13.43;;;;;;;;;;5054599;28;20056;-81
2023/04/16 08:39:36;;;;;;;31.30;15.70;;;;;;;;;;5070860;28;20036;-80
2023/04/16 08:42:04;;;;;;;24.85;14.63;;;;;;;;;;5064247;28;20080;-81
2023/04/16 08:44:34;;;;;;;28.20;14.40;;;;;;;;;;5055114;28;20040;-82
2023/04/16 08:47:01;;;;;;;26.55;14.82;;;;;;;;;;5066252;28;20560;-81
2023/04/16 08:49:27;;;;;;;26.15;13.60;;;;;;;;;;5035985;28;20485;-82
2023/04/16 08:51:54;;;;;;;30.55;14.45;;;;;;;;;;5061684;28;20044;-84
2023/04/16 08:54:43;;;;;;;29.35;15.13;;;;;;;;;;5055313;28;20044;-79
2023/04/16 08:57:13;;;;;;;26.30;14.38;;;;;;;;;;5051464;28;20060;-81
2023/04/16 08:59:39;;;;;;;28.00;13.55;;;;;;;;;;5034665;28;20415;-81
2023/04/16 09:02:05;;;;;;;35.25;14.93;;;;;;;;;;5034012;28;20576;-81
2023/04/16 09:04:32;;;;;;;29.70;13.73;;;;;;;;;;5041153;28;20050;-81
2023/04/16 09:06:58;;;;;;;30.42;14.43;;;;;;;;;;5053638;28;20051;-83
2023/04/16 09:09:27;;;;;;;35.28;15.13;;;;;;;;;;5037456;28;20044;-83
2023/04/16 09:11:54;;;;;;;33.03;15.32;;;;;;;;;;5035402;28;20056;-83
2023/04/16 09:14:21;;;;;;;25.10;15.35;;;;;;;;;;5071214;28;20412;-83
2023/04/16 09:16:47;;;;;;;30.30;15.48;;;;;;;;;;5063437;28;20140;-84
2023/04/16 09:19:16;;;;;;;26.27;14.77;;;;;;;;;;5055434;28;20048;-82
2023/04/16 09:21:42;;;;;;;31.13;15.68;;;;;;;;;;5057816;28;20040;-82
2023/04/16 09:24:09;;;;;;;26.35;13.52;;;;;;;;;;5052565;28;20041;-82
2023/04/16 09:26:35;;;;;;;29.60;13.93;;;;;;;;;;5065930;28;20628;-83
2023/04/16 09:29:01;;;;;;;24.92;13.43;;;;;;;;;;5053809;28;20481;-81
2023/04/16 09:31:28;;;;;;;29.45;14.38;;;;;;;;;;5059978;28;20401;-82
2023/04/16 09:34:01;;;;;;;29.48;14.20;;;;;;;;;;5048289;28;20048;-82
2023/04/16 09:36:27;;;;;;;29.17;14.43;;;;;;;;;;5050453;28;20512;-82
2023/04/16 09:38:54;;;;;;;29.88;14.15;;;;;;;;;;5061619;28;20056;-83
2023/04/16 09:41:24;;;;;;;29.27;14.00;;;;;;;;;;5058375;28;20120;-82
2023/04/16 09:43:56;;;;;;;28.98;14.00;;;;;;;;;;5037952;28;20138;-83
2023/04/16 09:46:23;;;;;;;32.10;15.45;;;;;;;;;;5037212;28;20082;-82
2023/04/16 09:48:49;;;;;;;32.80;14.73;;;;;;;;;;5056397;28;20052;-82
2023/04/16 09:51:15;;;;;;;28.13;13.27;;;;;;;;;;5050171;28;20057;-83
2023/04/16 09:53:41;;;;;;;28.08;13.90;;;;;;;;;;5069063;28;20048;-83
2023/04/16 09:56:08;;;;;;;29.23;13.40;;;;;;;;;;5063411;28;20045;-82
2023/04/16 09:58:38;;;;;;;33.42;13.68;;;;;;;;;;5049955;28;20057;-84
2023/04/16 10:01:10;;;;;;;30.25;14.93;;;;;;;;;;5041816;28;20521;-82
2023/04/16 10:03:38;;;;;;;36.00;14.52;;;;;;;;;;5055457;28;20502;-83
2023/04/16 10:06:07;;;;;;;30.60;13.63;;;;;;;;;;5058692;28;20070;-83
2023/04/16 10:08:33;;;;;;;29.45;13.45;;;;;;;;;;5064728;28;20562;-84
2023/04/16 10:10:59;;;;;;;36.42;14.32;;;;;;;;;;5061002;28;20480;-83
2023/04/16 10:13:29;;;;;;;27.95;13.60;;;;;;;;;;5058252;28;20087;-83
2023/04/16 10:15:56;;;;;;;28.63;14.55;;;;;;;;;;5055129;28;20554;-80
2023/04/16 10:18:22;;;;;;;23.90;12.73;;;;;;;;;;5060043;28;20044;-82
2023/04/16 10:20:52;;;;;;;26.65;13.52;;;;;;;;;;5055819;28;20076;-81
2023/04/16 10:23:19;;;;;;;24.90;13.55;;;;;;;;;;5058162;28;20397;-82
2023/04/16 10:25:46;;;;;;;32.10;13.43;;;;;;;;;;5055391;28;20049;-82
2023/04/16 10:28:13;;;;;;;28.10;13.05;;;;;;;;;;5053781;28;20040;-82
2023/04/16 10:30:41;;;;;;;24.10;13.07;;;;;;;;;;5057163;28;20087;-82
2023/04/16 10:33:07;;;;;;;22.75;12.35;;;;;;;;;;5048824;28;20057;-82
2023/04/16 10:35:38;;;;;;;25.33;12.77;;;;;;;;;;5050999;28;20554;-81
2023/04/16 10:38:24;;;;;;;27.75;12.25;;;;;;;;;;5052687;28;20057;-82
2023/04/16 10:40:50;;;;;;;19.73;12.32;;;;;;;;;;5034166;28;20053;-82
2023/04/16 10:43:18;;;;;;;31.38;13.43;;;;;;;;;;5057293;28;20041;-82
2023/04/16 10:45:44;;;;;;;25.42;13.25;;;;;;;;;;5052473;28;20424;-82
2023/04/16 10:48:13;;;;;;;25.70;12.93;;;;;;;;;;5065265;28;20052;-82
2023/04/16 10:50:40;;;;;;;25.33;13.48;;;;;;;;;;5061730;28;20048;-83
2023/04/16 10:53:19;;;;;;;22.83;13.45;;;;;;;;;;5036878;28;20055;-83
2023/04/16 10:55:58;;;;;;;22.50;12.77;;;;;;;;;;5051516;28;20091;-82
2023/04/16 10:58:30;;;;;;;22.42;13.85;;;;;;;;;;5030227;28;20049;-83
2023/04/16 11:01:00;;;;;;;23.83;14.60;;;;;;;;;;5035744;28;20083;-82
2023/04/16 11:03:30;;;;;;;24.25;15.23;;;;;;;;;;5046293;28;21263;-82
2023/04/16 11:06:09;;;;;;;25.40;13.85;;;;;;;;;;5051626;28;20045;-82
2023/04/16 11:08:36;;;;;;;26.52;14.43;;;;;;;;;;5055108;28;20053;-82
2023/04/16 11:11:04;;;;;;;25.48;13.90;;;;;;;;;;5059100;28;20037;-82
2023/04/16 11:13:31;;;;;;;23.75;15.18;;;;;;;;;;5049803;28;20393;-82
2023/04/16 11:16:01;;;;;;;28.33;16.00;;;;;;;;;;5053631;28;20077;-82
2023/04/16 11:18:27;;;;;;;28.50;15.80;;;;;;;;;;5036276;28;20041;-82
2023/04/16 11:20:53;;;;;;;26.50;15.43;;;;;;;;;;5048916;28;20135;-82
2023/04/16 11:23:19;;;;;;;25.23;15.13;;;;;;;;;;5038239;28;20112;-82
2023/04/16 11:25:45;;;;;;;26.27;14.55;;;;;;;;;;5054074;28;20045;-82
2023/04/16 11:28:11;;;;;;;22.05;13.75;;;;;;;;;;5057043;28;20043;-82
2023/04/16 11:30:38;;;;;;;29.15;14.23;;;;;;;;;;5050186;28;20043;-82
2023/04/16 11:33:05;;;;;;;27.77;15.23;;;;;;;;;;5058926;28;20129;-82
2023/04/16 11:35:31;;;;;;;20.98;14.23;;;;;;;;;;5053558;28;20032;-82
2023/04/16 11:37:57;;;;;;;25.55;14.88;;;;;;;;;;5052333;28;20043;-82
2023/04/16 11:40:24;;;;;;;23.33;14.43;;;;;;;;;;5035944;28;20119;-82
2023/04/16 11:42:50;;;;;;;23.98;14.95;;;;;;;;;;5052568;28;20541;-83
2023/04/16 11:45:19;;;;;;;26.35;15.13;;;;;;;;;;5036735;28;20049;-80
2023/04/16 11:47:50;;;;;;;24.20;14.95;;;;;;;;;;5056549;28;20040;-83
2023/04/16 11:50:34;;;;;;;27.80;15.70;;;;;;;;;;5042430;28;20060;-84
2023/04/16 11:53:05;;;;;;;21.95;14.38;;;;;;;;;;5036588;28;20045;-84
2023/04/16 11:55:31;;;;;;;21.20;14.57;;;;;;;;;;5051556;28;20377;-84
2023/04/16 11:57:57;;;;;;;21.23;14.35;;;;;;;;;;5038907;28;20067;-84
2023/04/16 12:00:23;;;;;;;24.83;15.27;;;;;;;;;;5032036;28;20795;-84
2023/04/16 12:02:50;;;;;;;26.13;14.68;;;;;;;;;;5039084;28;20037;-83
2023/04/16 12:05:29;;;;;;;23.35;15.05;;;;;;;;;;5059896;28;20115;-84
2023/04/16 12:07:55;;;;;;;22.27;14.75;;;;;;;;;;5036727;28;20039;-84
2023/04/16 12:10:25;;;;;;;21.42;14.98;;;;;;;;;;5056456;28;20040;-83
2023/04/16 12:12:51;;;;;;;25.05;14.70;;;;;;;;;;5057428;28;20041;-83
2023/04/16 12:15:17;;;;;;;21.00;14.55;;;;;;;;;;5059274;28;20040;-84
2023/04/16 12:17:43;;;;;;;27.00;15.15;;;;;;;;;;5052263;28;20048;-84
2023/04/16 12:20:16;;;;;;;25.02;15.82;;;;;;;;;;5031274;28;20072;-83
2023/04/16 12:22:47;;;;;;;24.13;15.90;;;;;;;;;;5035657;28;20140;-83
2023/04/16 12:25:14;;;;;;;23.52;15.82;;;;;;;;;;5052585;28;20045;-83
2023/04/16 12:27:47;;;;;;;29.38;16.30;;;;;;;;;;5034394;28;20503;-82
2023/04/16 12:30:13;;;;;;;;;;;;;;;;;;5033580;28;20049;-80
2023/04/16 12:32:40;;;;;;;27.27;16.90;;;;;;;;;;5045929;28;19947;-79
2023/04/16 12:35:42;;;;;;;25.42;16.85;;;;;;;;;;5041637;28;20060;-77
2023/04/16 12:38:09;;;;;;;29.20;17.45;;;;;;;;;;5050802;28;20101;-80
2023/04/16 12:40:35;;;;;;;26.17;17.83;;;;;;;;;;5057216;28;20058;-78
2023/04/16 12:43:02;;;;;;;30.27;18.90;;;;;;;;;;5059538;28;20045;-79
2023/04/16 12:45:28;;;;;;;34.05;21.33;;;;;;;;;;5047618;28;20033;-79
2023/04/16 12:47:54;;;;;;;30.25;19.70;;;;;;;;;;5057286;28;20048;-79
2023/04/16 12:50:20;;;;;;;34.22;20.63;;;;;;;;;;5037844;28;20045;-78
2023/04/16 12:52:47;;;;;;;32.28;19.60;;;;;;;;;;5050191;28;20045;-79
2023/04/16 12:55:14;;;;;;;32.83;20.10;;;;;;;;;;5051627;28;20048;-79
2023/04/16 12:57:40;;;;;;;35.15;20.33;;;;;;;;;;5039137;28;20063;-79
2023/04/16 13:00:07;;;;;;;32.25;18.70;;;;;;;;;;5053341;28;20041;-78
2023/04/16 13:02:33;;;;;;;33.75;18.73;;;;;;;;;;5053498;28;20040;-78
2023/04/16 13:05:00;;;;;;;30.75;19.15;;;;;;;;;;5055196;28;20040;-82
2023/04/16 13:07:27;;;;;;;30.50;18.85;;;;;;;;;;5057390;28;20076;-80
2023/04/16 13:09:53;;;;;;;29.38;18.52;;;;;;;;;;5058343;28;20041;-81
2023/04/16 13:12:19;;;;;;;34.08;18.77;;;;;;;;;;5057914;28;20127;-81
2023/04/16 13:14:45;;;;;;;29.13;19.33;;;;;;;;;;5050107;28;20060;-79
2023/04/16 13:17:11;;;;;;;31.30;19.42;;;;;;;;;;5040277;28;20107;-79
2023/04/16 13:19:37;;;;;;;34.20;19.90;;;;;;;;;;5061791;28;20462;-79
2023/04/16 13:22:03;;;;;;;33.08;20.77;;;;;;;;;;5064058;28;20492;-77
2023/04/16 13:24:29;;;;;;;35.70;19.73;;;;;;;;;;5057797;28;20489;-77
2023/04/16 13:26:55;;;;;;;33.33;19.38;;;;;;;;;;5051251;28;20090;-82
2023/04/16 13:29:22;;;;;;;37.35;20.33;;;;;;;;;;5066096;28;20055;-85
2023/04/16 13:31:48;;;;;;;32.25;19.65;;;;;;;;;;5037298;28;20936;-80
2023/04/16 13:34:14;;;;;;;35.33;20.60;;;;;;;;;;5054031;28;20045;-77
2023/04/16 13:36:40;;;;;;;27.77;19.58;;;;;;;;;;5054800;28;20099;-76
2023/04/16 13:39:10;;;;;;;34.50;20.02;;;;;;;;;;5058968;28;20492;-77
2023/04/16 13:41:39;;;;;;;32.55;20.27;;;;;;;;;;5048920;28;20049;-76
2023/04/16 13:44:05;;;;;;;29.50;20.20;;;;;;;;;;5047806;28;20447;-77
2023/04/16 13:46:31;;;;;;;34.85;20.52;;;;;;;;;;5070880;28;20128;-77
2023/04/16 13:48:58;;;;;;;32.97;19.38;;;;;;;;;;5040487;28;20055;-76
2023/04/16 13:51:24;;;;;;;33.88;20.13;;;;;;;;;;5048796;28;20087;-77
2023/04/16 13:53:50;;;;;;;36.72;20.85;;;;;;;;;;5064595;28;20051;-77
2023/04/16 13:56:16;;;;;;;35.72;19.50;;;;;;;;;;5047587;28;20064;-80
2023/04/16 13:58:42;;;;;;;32.85;20.45;;;;;;;;;;5062062;28;20048;-80
2023/04/16 14:01:09;;;;;;;37.92;22.10;;;;;;;;;;5052982;28;20041;-78
2023/04/16 14:03:37;;;;;;;32.53;20.90;;;;;;;;;;5052247;28;20045;-78
2023/04/16 14:06:03;;;;;;;32.65;21.30;;;;;;;;;;5054927;28;20685;-82
2023/04/16 14:08:29;;;;;;;36.00;21.77;;;;;;;;;;5057745;28;20052;-81
2023/04/16 14:10:56;;;;;;;36.88;21.38;;;;;;;;;;5056323;28;20396;-78
2023/04/16 14:13:22;;;;;;;35.33;22.15;;;;;;;;;;5056791;28;20046;-78
2023/04/16 14:15:48;;;;;;;34.58;20.92;;;;;;;;;;5059387;28;20048;-81
2023/04/16 14:18:14;;;;;;;31.95;19.63;;;;;;;;;;5053711;28;20040;-81